createdAt,value
2019-05-07T00:00:47.881Z,1.30
2019-05-07T00:03:16.773Z,1.67
2019-05-07T00:05:45.216Z,1.33
2019-05-07T00:08:13.719Z,1.20
2019-05-07T00:10:42.674Z,1.40
2019-05-07T00:13:12.908Z,1.17
2019-05-07T00:15:42.033Z,1.50
2019-05-07T00:18:12.689Z,1.40
2019-05-07T00:20:42.339Z,1.20
2019-05-07T00:23:12.401Z,1.30
2019-05-07T00:25:42.147Z,1.40
2019-05-07T00:28:12.264Z,1.33
2019-05-07T00:30:42.453Z,1.63
2019-05-07T00:33:13.169Z,1.37
2019-05-07T00:35:48.514Z,1.40
2019-05-07T00:38:18.929Z,1.67
2019-05-07T00:40:59.947Z,1.43
2019-05-07T00:43:32.252Z,1.40
2019-05-07T00:46:10.040Z,1.50
2019-05-07T00:48:38.561Z,1.50
2019-05-07T00:51:29.355Z,1.30
2019-05-07T00:53:58.094Z,1.67
2019-05-07T00:56:26.550Z,1.50
2019-05-07T00:58:55.032Z,1.70
2019-05-07T01:01:23.578Z,1.50
2019-05-07T01:03:53.374Z,1.37
2019-05-07T01:06:23.506Z,1.43
2019-05-07T01:08:52.601Z,1.37
2019-05-07T01:11:22.647Z,1.23
2019-05-07T01:13:52.151Z,1.20
2019-05-07T01:16:22.218Z,1.17
2019-05-07T01:18:50.993Z,1.33
2019-05-07T01:21:19.864Z,1.47
2019-05-07T01:23:48.397Z,1.20
2019-05-07T01:26:17.269Z,1.40
2019-05-07T01:29:02.988Z,1.50
2019-05-07T01:31:52.549Z,1.73
2019-05-07T01:34:48.893Z,1.23
2019-05-07T01:37:17.232Z,1.57
2019-05-07T01:39:45.737Z,1.30
2019-05-07T01:42:14.177Z,1.60
2019-05-07T01:44:43.212Z,1.27
2019-05-07T01:47:13.049Z,1.20
2019-05-07T01:49:42.351Z,1.30
2019-05-07T01:52:13.098Z,1.53
2019-05-07T01:54:42.552Z,1.50
2019-05-07T01:57:12.315Z,1.40
2019-05-07T01:59:42.725Z,1.57
2019-05-07T02:02:18.669Z,1.30
2019-05-07T02:04:54.744Z,1.40
2019-05-07T02:07:36.361Z,1.23
2019-05-07T02:10:42.753Z,1.20
2019-05-07T02:13:12.581Z,1.67
2019-05-07T02:15:42.773Z,1.47
2019-05-07T02:18:12.577Z,1.40
2019-05-07T02:20:42.664Z,2.17
2019-05-07T02:23:12.791Z,1.40
2019-05-07T02:25:42.095Z,1.37
2019-05-07T02:28:12.869Z,1.43
2019-05-07T02:30:44.528Z,1.50
2019-05-07T02:33:13.827Z,1.40
2019-05-07T02:35:43.921Z,1.17
2019-05-07T02:38:24.962Z,1.53
2019-05-07T02:41:02.854Z,1.73
2019-05-07T02:43:33.726Z,1.50
2019-05-07T02:46:29.397Z,1.50
2019-05-07T02:49:13.501Z,1.50
2019-05-07T02:55:45.382Z,1.33
2019-05-07T02:58:13.946Z,1.70
2019-05-07T03:00:43.415Z,1.73
2019-05-07T03:03:13.718Z,1.73
2019-05-07T03:05:43.362Z,1.60
2019-05-07T03:08:13.513Z,1.40
2019-05-07T03:10:43.529Z,1.40
2019-05-07T03:13:13.682Z,1.47
2019-05-07T03:15:43.470Z,1.60
2019-05-07T03:18:13.824Z,1.60
2019-05-07T03:20:53.384Z,1.50
2019-05-07T03:23:24.949Z,1.80
2019-05-07T03:26:17.115Z,1.47
2019-05-07T03:28:53.115Z,1.33
2019-05-07T03:31:47.157Z,1.53
2019-05-07T03:34:37.260Z,1.40
2019-05-07T03:37:07.465Z,1.40
2019-05-07T03:39:35.975Z,1.50
2019-05-07T03:42:04.396Z,1.50
2019-05-07T03:44:58.456Z,1.57
2019-05-07T03:47:33.231Z,1.90
2019-05-07T03:50:03.454Z,1.40
2019-05-07T03:52:33.499Z,1.40
2019-05-07T03:55:03.756Z,1.53
2019-05-07T03:57:33.379Z,1.80
2019-05-07T04:00:04.235Z,1.50
2019-05-07T04:02:33.652Z,1.40
2019-05-07T04:05:04.365Z,1.60
2019-05-07T04:07:33.719Z,2.10
2019-05-07T04:10:04.363Z,1.60
2019-05-07T04:12:34.212Z,1.93
2019-05-07T04:15:03.398Z,1.50
2019-05-07T04:17:33.846Z,1.53
2019-05-07T04:20:04.380Z,1.43
2019-05-07T04:22:34.526Z,1.73
2019-05-07T04:25:23.935Z,1.70
2019-05-07T04:28:17.463Z,1.40
2019-05-07T04:30:46.161Z,1.60
2019-05-07T04:33:16.257Z,1.80
2019-05-07T04:36:02.906Z,2.30
2019-05-07T04:38:33.139Z,1.67
2019-05-07T04:41:03.610Z,2.00
2019-05-07T04:43:33.343Z,2.17
2019-05-07T04:46:03.250Z,1.40
2019-05-07T04:48:34.143Z,1.73
2019-05-07T04:51:04.257Z,1.50
2019-05-07T04:53:32.990Z,1.70
2019-05-07T04:56:03.338Z,1.83
2019-05-07T04:58:33.820Z,1.60
2019-05-07T05:01:03.365Z,1.80
2019-05-07T05:03:34.189Z,1.50
2019-05-07T05:06:02.743Z,1.70
2019-05-07T05:08:32.498Z,1.50
2019-05-07T05:11:03.281Z,1.90
2019-05-07T05:13:33.082Z,2.10
2019-05-07T05:16:22.434Z,1.87
2019-05-07T05:18:51.760Z,1.63
2019-05-07T05:21:35.450Z,1.70
2019-05-07T05:24:12.492Z,1.63
2019-05-07T05:26:41.925Z,1.47
2019-05-07T05:29:12.123Z,1.60
2019-05-07T05:31:42.173Z,1.83
2019-05-07T05:34:12.865Z,1.47
2019-05-07T05:36:42.484Z,1.77
2019-05-07T05:39:13.150Z,1.60
2019-05-07T05:41:43.385Z,1.53
2019-05-07T05:44:32.139Z,1.80
2019-05-07T05:47:02.374Z,1.57
2019-05-07T05:49:32.167Z,2.13
2019-05-07T05:52:16.604Z,1.80
2019-05-07T05:54:58.341Z,1.60
2019-05-07T05:57:58.029Z,1.60
2019-05-07T06:00:54.911Z,1.97
2019-05-07T06:03:45.842Z,1.73
2019-05-07T06:06:32.700Z,2.03
2019-05-07T06:09:26.413Z,1.60
2019-05-07T06:12:13.053Z,1.63
2019-05-07T06:14:51.168Z,1.53
2019-05-07T06:17:37.527Z,1.73
2019-05-07T06:20:25.184Z,1.67
2019-05-07T06:23:33.035Z,1.30
2019-05-07T06:26:05.122Z,1.43
2019-05-07T06:28:33.002Z,1.37
2019-05-07T06:31:02.215Z,1.33
2019-05-07T06:33:32.420Z,1.50
2019-05-07T06:36:02.857Z,1.30
2019-05-07T06:38:35.420Z,1.30
2019-05-07T06:41:26.585Z,1.50
2019-05-07T06:44:02.096Z,1.40
2019-05-07T06:46:32.312Z,1.60
2019-05-07T06:49:02.181Z,1.87
2019-05-07T06:51:44.308Z,1.67
2019-05-07T06:54:13.254Z,1.47
2019-05-07T06:56:42.185Z,1.33
2019-05-07T06:59:16.617Z,1.50
2019-05-07T07:01:54.181Z,1.43
2019-05-07T07:04:39.564Z,1.40
2019-05-07T07:07:27.386Z,1.47
2019-05-07T07:10:02.704Z,1.20
2019-05-07T07:12:33.126Z,1.13
2019-05-07T07:15:02.753Z,1.43
2019-05-07T07:17:32.610Z,1.10
2019-05-07T07:20:02.069Z,1.43
2019-05-07T07:22:31.983Z,1.10
2019-05-07T07:25:02.902Z,1.27
2019-05-07T07:27:32.183Z,1.00
2019-05-07T07:30:09.180Z,1.00
2019-05-07T07:32:38.637Z,1.20
2019-05-07T07:35:09.338Z,1.10
2019-05-07T07:37:43.052Z,1.23
2019-05-07T07:40:36.117Z,1.20
2019-05-07T07:43:07.002Z,1.00
2019-05-07T07:45:35.068Z,1.40
2019-05-07T07:48:03.986Z,1.27
2019-05-07T07:50:32.990Z,1.13
2019-05-07T07:53:02.694Z,1.43
2019-05-07T07:55:36.991Z,1.20
2019-05-07T07:58:18.544Z,1.20
2019-05-07T08:01:02.841Z,1.43
2019-05-07T08:03:32.935Z,1.23
2019-05-07T08:06:02.186Z,1.50
2019-05-07T08:08:32.003Z,1.30
2019-05-07T08:11:02.392Z,1.30
2019-05-07T08:13:32.497Z,1.40
2019-05-07T08:16:02.455Z,1.20
2019-05-07T08:18:32.763Z,1.20
2019-05-07T08:21:02.534Z,1.07
2019-05-07T08:23:31.988Z,1.20
2019-05-07T08:26:02.397Z,1.37
2019-05-07T08:28:31.916Z,1.30
2019-05-07T08:31:19.227Z,1.23
2019-05-07T08:33:57.201Z,1.17
2019-05-07T08:36:25.649Z,1.47
2019-05-07T08:38:55.728Z,1.20
2019-05-07T08:41:25.800Z,0.90
2019-05-07T08:44:10.717Z,1.20
2019-05-07T08:46:55.660Z,1.30
2019-05-07T08:49:35.905Z,1.10
2019-05-07T08:52:03.321Z,1.03
2019-05-07T08:54:32.355Z,7.83
2019-05-07T08:57:01.976Z,6.50
2019-05-07T08:59:32.288Z,6.77
2019-05-07T09:02:02.882Z,1.40
2019-05-07T09:04:32.747Z,2.67
2019-05-07T09:07:02.684Z,1.10
2019-05-07T09:09:32.443Z,1.27
2019-05-07T09:12:02.979Z,1.00
2019-05-07T09:14:32.024Z,1.00
2019-05-07T09:17:02.579Z,1.10
2019-05-07T09:19:32.287Z,1.00
2019-05-07T09:22:02.122Z,0.90
2019-05-07T09:24:33.296Z,1.13
2019-05-07T09:27:12.917Z,1.20
2019-05-07T09:30:02.684Z,1.00
2019-05-07T09:32:53.993Z,1.03
2019-05-07T09:35:25.956Z,1.20
2019-05-07T09:37:54.390Z,0.90
2019-05-07T09:40:22.907Z,1.10
2019-05-07T09:42:52.550Z,1.20
2019-05-07T09:45:22.497Z,1.20
2019-05-07T09:47:52.229Z,0.90
2019-05-07T09:50:22.061Z,1.37
2019-05-07T09:52:51.860Z,0.97
2019-05-07T09:55:23.156Z,1.10
2019-05-07T09:57:52.799Z,1.30
2019-05-07T10:00:22.598Z,1.00
2019-05-07T10:02:52.820Z,1.27
2019-05-07T10:05:21.609Z,1.00
2019-05-07T10:07:50.052Z,1.00
2019-05-07T10:10:18.699Z,0.90
2019-05-07T10:13:18.657Z,1.10
2019-05-07T10:15:47.252Z,1.20
2019-05-07T10:18:17.393Z,1.13
2019-05-07T10:20:46.198Z,1.00
2019-05-07T10:23:23.038Z,0.90
2019-05-07T10:25:52.152Z,1.00
2019-05-07T10:28:22.705Z,1.30
2019-05-07T10:30:52.335Z,1.07
2019-05-07T10:33:22.722Z,1.20
2019-05-07T10:35:52.878Z,1.10
2019-05-07T10:38:21.852Z,1.00
2019-05-07T10:40:50.493Z,1.20
2019-05-07T10:43:18.951Z,1.00
2019-05-07T10:46:19.083Z,1.03
2019-05-07T10:49:06.865Z,1.87
2019-05-07T10:51:35.840Z,0.87
2019-05-07T10:54:04.445Z,0.90
2019-05-07T10:56:32.958Z,1.07
2019-05-07T10:59:02.853Z,1.10
2019-05-07T11:01:42.406Z,1.10
2019-05-07T11:04:12.670Z,0.73
2019-05-07T11:06:41.768Z,0.90
2019-05-07T11:09:10.765Z,1.20
2019-05-07T11:11:39.261Z,1.00
2019-05-07T11:14:07.717Z,1.00
2019-05-07T11:16:43.316Z,1.00
2019-05-07T11:19:12.747Z,0.93
2019-05-07T11:21:41.874Z,1.10
2019-05-07T11:24:12.123Z,1.20
2019-05-07T11:26:41.984Z,1.07
2019-05-07T11:29:12.853Z,1.20
2019-05-07T11:31:42.378Z,1.10
2019-05-07T11:34:11.973Z,1.20
2019-05-07T11:36:42.949Z,0.90
2019-05-07T11:39:12.179Z,0.93
2019-05-07T11:41:59.204Z,0.90
2019-05-07T11:44:29.060Z,0.90
2019-05-07T11:47:22.486Z,1.20
2019-05-07T11:50:09.378Z,1.23
2019-05-07T11:52:42.533Z,1.07
2019-05-07T11:55:12.059Z,1.10
2019-05-07T11:57:44.203Z,1.10
2019-05-07T12:00:21.865Z,1.37
2019-05-07T12:02:51.881Z,1.07
2019-05-07T12:05:22.557Z,1.10
2019-05-07T12:07:50.894Z,1.20
2019-05-07T12:10:19.696Z,1.40
2019-05-07T12:12:48.206Z,1.20
2019-05-07T12:15:17.164Z,1.43
2019-05-07T12:17:46.166Z,1.57
2019-05-07T12:20:15.267Z,1.30
2019-05-07T12:22:46.837Z,1.43
2019-05-07T12:25:16.222Z,1.40
2019-05-07T12:27:44.874Z,1.20
2019-05-07T12:30:16.839Z,1.10
2019-05-07T12:33:07.740Z,1.17
2019-05-07T12:35:36.294Z,1.33
2019-05-07T12:38:04.830Z,1.40
2019-05-07T12:40:33.285Z,1.30
2019-05-07T12:43:02.095Z,1.50
2019-05-07T12:45:31.020Z,1.80
2019-05-07T12:47:59.522Z,1.73
2019-05-07T12:50:27.985Z,1.40
2019-05-07T12:53:05.038Z,1.83
2019-05-07T12:55:37.883Z,1.50
2019-05-07T12:58:06.450Z,1.70
2019-05-07T13:00:52.773Z,1.90
2019-05-07T13:03:36.791Z,1.70
2019-05-07T13:06:05.257Z,1.53
2019-05-07T13:08:33.785Z,1.20
2019-05-07T13:11:03.066Z,1.67
2019-05-07T13:13:32.132Z,1.37
2019-05-07T13:16:02.733Z,1.50
2019-05-07T13:18:31.427Z,1.77
2019-05-07T13:21:02.229Z,1.40
2019-05-07T13:23:31.825Z,1.90
2019-05-07T13:26:02.375Z,1.80
2019-05-07T13:28:30.941Z,1.87
2019-05-07T13:30:59.375Z,1.80
2019-05-07T13:33:29.219Z,1.80
2019-05-07T13:35:57.717Z,1.60
2019-05-07T13:38:48.445Z,1.43
2019-05-07T13:41:42.269Z,1.70
2019-05-07T13:44:31.899Z,1.80
2019-05-07T13:47:18.712Z,1.50
2019-05-07T13:49:47.901Z,1.33
2019-05-07T13:52:16.953Z,1.80
2019-05-07T13:54:45.502Z,1.93
2019-05-07T13:57:13.926Z,1.67
2019-05-07T13:59:42.531Z,1.50
2019-05-07T14:02:15.169Z,1.77
2019-05-07T14:04:42.437Z,1.50
2019-05-07T14:07:12.659Z,1.80
2019-05-07T14:09:41.989Z,1.57
2019-05-07T14:12:12.325Z,1.73
2019-05-07T14:14:42.609Z,1.30
2019-05-07T14:17:12.717Z,1.70
2019-05-07T14:19:42.292Z,1.23
2019-05-07T14:22:17.933Z,1.10
2019-05-07T14:24:42.210Z,1.27
2019-05-07T14:27:10.799Z,1.37
2019-05-07T14:29:39.380Z,1.30
2019-05-07T14:32:27.156Z,1.50
2019-05-07T14:35:27.590Z,1.20
2019-05-07T14:38:03.473Z,1.17
2019-05-07T14:40:32.351Z,0.97
2019-05-07T14:43:23.368Z,1.10
2019-05-07T14:45:52.261Z,1.30
2019-05-07T14:48:22.580Z,0.90
2019-05-07T14:50:53.052Z,1.10
2019-05-07T14:53:22.385Z,1.00
2019-05-07T14:55:51.085Z,1.27
2019-05-07T14:58:19.520Z,0.80
2019-05-07T15:00:48.005Z,0.90
2019-05-07T15:03:17.097Z,0.90
2019-05-07T15:05:45.596Z,1.03
2019-05-07T15:08:14.651Z,1.00
2019-05-07T15:10:43.340Z,1.10
2019-05-07T15:13:12.714Z,0.90
2019-05-07T15:15:41.401Z,1.30
2019-05-07T15:18:16.774Z,1.00
2019-05-07T15:20:45.205Z,0.90
2019-05-07T15:23:17.997Z,0.90
2019-05-07T15:25:47.785Z,0.93
2019-05-07T15:28:17.478Z,0.93
2019-05-07T15:31:12.097Z,0.97
2019-05-07T15:33:41.786Z,1.00
2019-05-07T15:36:11.939Z,1.00
2019-05-07T15:38:42.957Z,1.00
2019-05-07T15:41:11.325Z,0.90
2019-05-07T15:43:39.826Z,0.77
2019-05-07T15:46:08.278Z,0.87
2019-05-07T15:48:37.220Z,0.90
2019-05-07T15:51:05.668Z,1.37
2019-05-07T15:53:45.890Z,0.90
2019-05-07T15:56:14.380Z,1.10
2019-05-07T15:58:42.952Z,0.80
2019-05-07T16:01:12.884Z,1.00
2019-05-07T16:03:43.196Z,0.90
2019-05-07T16:06:12.712Z,1.20
2019-05-07T16:08:53.270Z,0.87
2019-05-07T16:11:23.281Z,1.00
2019-05-07T16:14:12.409Z,1.00
2019-05-07T16:16:43.471Z,1.13
2019-05-07T16:19:26.178Z,1.10
2019-05-07T16:21:55.125Z,1.20
2019-05-07T16:24:23.617Z,0.93
2019-05-07T16:26:52.402Z,0.93
2019-05-07T16:29:22.507Z,1.10
2019-05-07T16:31:52.111Z,1.20
2019-05-07T16:34:22.012Z,1.00
2019-05-07T16:36:51.213Z,1.10
2019-05-07T16:39:19.730Z,1.10
2019-05-07T16:41:48.171Z,1.30
2019-05-07T16:44:17.081Z,1.50
2019-05-07T16:46:45.527Z,1.20
2019-05-07T16:49:14.022Z,1.10
2019-05-07T16:51:44.744Z,1.50
2019-05-07T16:54:12.812Z,1.33
2019-05-07T16:57:02.898Z,1.20
2019-05-07T16:59:32.414Z,1.30
2019-05-07T17:02:05.742Z,1.87
2019-05-07T17:04:34.663Z,1.50
2019-05-07T17:07:04.893Z,2.33
2019-05-07T17:09:35.281Z,1.90
2019-05-07T17:12:06.312Z,1.93
2019-05-07T17:14:34.807Z,1.70
2019-05-07T17:17:03.622Z,1.80
2019-05-07T17:19:32.108Z,2.10
2019-05-07T17:22:02.355Z,2.27
2019-05-07T17:24:32.856Z,2.60
2019-05-07T17:27:02.307Z,3.90
2019-05-07T17:29:32.131Z,3.87
2019-05-07T17:32:01.671Z,4.77
2019-05-07T17:34:30.589Z,4.80
2019-05-07T17:36:58.918Z,5.60
2019-05-07T17:39:27.417Z,4.87
2019-05-07T17:41:55.844Z,5.63
2019-05-07T17:44:24.752Z,5.47
2019-05-07T17:46:53.177Z,5.90
2019-05-07T17:49:21.939Z,6.03
2019-05-07T17:51:52.470Z,6.00
2019-05-07T17:54:22.470Z,5.10
2019-05-07T17:56:52.675Z,5.47
2019-05-07T17:59:21.606Z,5.03
2019-05-07T18:02:05.709Z,5.13
2019-05-07T18:04:47.566Z,4.50
2019-05-07T18:07:06.645Z,4.70
2019-05-07T18:09:35.117Z,4.57
2019-05-07T18:12:03.613Z,4.30
2019-05-07T18:14:32.283Z,4.97
2019-05-07T18:17:13.061Z,4.83
2019-05-07T18:19:41.857Z,3.80
2019-05-07T18:22:12.668Z,3.27
2019-05-07T18:24:41.957Z,3.80
2019-05-07T18:27:14.772Z,3.70
2019-05-07T18:29:43.213Z,4.60
2019-05-07T18:32:12.422Z,4.13
2019-05-07T18:34:42.753Z,3.80
2019-05-07T18:37:12.611Z,3.77
2019-05-07T18:39:45.713Z,4.03
2019-05-07T18:42:14.213Z,4.50
2019-05-07T18:44:42.710Z,4.53
2019-05-07T18:47:12.916Z,4.10
2019-05-07T18:49:42.936Z,4.30
2019-05-07T18:52:12.548Z,3.87
2019-05-07T18:54:42.767Z,4.60
2019-05-07T18:57:11.614Z,3.60
2019-05-07T18:59:42.186Z,4.13
2019-05-07T19:02:11.420Z,4.47
2019-05-07T19:04:42.149Z,4.17
2019-05-07T19:07:13.167Z,4.10
2019-05-07T19:09:42.530Z,3.83
2019-05-07T19:12:13.652Z,3.67
2019-05-07T19:14:43.469Z,3.80
2019-05-07T19:17:13.518Z,4.27
2019-05-07T19:19:43.959Z,3.90
2019-05-07T19:22:13.904Z,3.33
2019-05-07T19:24:47.878Z,3.20
2019-05-07T19:27:15.400Z,3.17
2019-05-07T19:29:45.940Z,2.93
2019-05-07T19:32:17.447Z,3.03
2019-05-07T19:34:47.485Z,2.70
2019-05-07T19:37:18.463Z,2.83
2019-05-07T19:39:48.351Z,2.97
2019-05-07T19:42:18.215Z,2.63
2019-05-07T19:44:49.287Z,2.53
2019-05-07T19:47:19.144Z,3.03
2019-05-07T19:49:48.738Z,2.57
2019-05-07T19:52:19.463Z,3.27
2019-05-07T19:54:58.796Z,2.33
2019-05-07T19:57:26.515Z,3.50
2019-05-07T19:59:56.209Z,2.30
2019-05-07T20:02:32.124Z,2.87
2019-05-07T20:05:03.518Z,2.87
2019-05-07T20:07:35.122Z,3.07
2019-05-07T20:10:05.486Z,2.63
2019-05-07T20:12:35.951Z,2.50
2019-05-07T20:15:06.016Z,2.53
2019-05-07T20:17:35.954Z,2.90
2019-05-07T20:20:06.450Z,2.57
2019-05-07T20:22:38.319Z,2.53
2019-05-07T20:25:16.455Z,3.00
2019-05-07T20:27:41.722Z,2.30
2019-05-07T20:30:12.154Z,2.53
2019-05-07T20:32:42.832Z,3.07
2019-05-07T20:35:12.934Z,2.93
2019-05-07T20:37:42.733Z,2.37
2019-05-07T20:40:12.689Z,2.63
2019-05-07T20:42:42.802Z,3.43
2019-05-07T20:45:13.554Z,2.60
2019-05-07T20:47:43.273Z,2.40
2019-05-07T20:50:13.035Z,2.50
2019-05-07T20:52:43.076Z,2.60
2019-05-07T20:55:34.911Z,2.40
2019-05-07T20:58:05.193Z,2.80
2019-05-07T21:00:35.542Z,2.93
2019-05-07T21:03:19.901Z,2.73
2019-05-07T21:05:54.956Z,1.90
2019-05-07T21:08:23.489Z,2.90
2019-05-07T21:10:53.525Z,2.40
2019-05-07T21:13:31.077Z,3.00
2019-05-07T21:15:52.767Z,3.13
2019-05-07T21:18:23.243Z,2.50
2019-05-07T21:20:53.081Z,3.00
2019-05-07T21:23:23.152Z,3.37
2019-05-07T21:25:52.697Z,2.27
2019-05-07T21:28:21.812Z,2.03
2019-05-07T21:30:52.167Z,2.67
2019-05-07T21:33:22.954Z,2.27
2019-05-07T21:35:52.327Z,2.77
2019-05-07T21:38:22.427Z,3.20
2019-05-07T21:40:51.320Z,2.20
2019-05-07T21:43:22.213Z,2.50
2019-05-07T21:45:52.689Z,2.40
2019-05-07T21:48:22.289Z,1.90
2019-05-07T21:50:51.935Z,2.47
2019-05-07T21:53:35.317Z,2.47
2019-05-07T21:56:29.136Z,2.77
2019-05-07T21:59:03.026Z,2.50
2019-05-07T22:01:45.486Z,2.57
2019-05-07T22:04:14.000Z,2.80
2019-05-07T22:06:45.138Z,1.90
2019-05-07T22:09:13.934Z,3.00
2019-05-07T22:11:42.804Z,2.80
2019-05-07T22:14:12.897Z,2.30
2019-05-07T22:16:41.666Z,2.27
2019-05-07T22:19:12.097Z,3.20
2019-05-07T22:21:42.928Z,2.43
2019-05-07T22:24:14.687Z,2.97
2019-05-07T22:26:42.050Z,1.97
2019-05-07T22:29:12.516Z,2.90
2019-05-07T22:32:11.761Z,2.50
2019-05-07T22:34:59.332Z,3.00
2019-05-07T22:37:27.875Z,2.73
2019-05-07T22:39:56.372Z,2.77
2019-05-07T22:42:24.818Z,2.67
2019-05-07T22:44:53.314Z,2.37
2019-05-07T22:47:22.736Z,2.50
2019-05-07T22:49:53.490Z,2.87
2019-05-07T22:52:22.487Z,2.57
2019-05-07T22:54:51.716Z,2.90
2019-05-07T22:57:41.864Z,2.40
2019-05-07T23:00:12.938Z,2.90
2019-05-07T23:02:42.828Z,2.63
2019-05-07T23:05:12.226Z,2.93
2019-05-07T23:07:41.810Z,3.07
2019-05-07T23:10:11.887Z,4.07
2019-05-07T23:12:40.576Z,2.43
2019-05-07T23:15:09.111Z,3.63
2019-05-07T23:17:37.608Z,2.80
2019-05-07T23:20:06.241Z,4.93
2019-05-07T23:22:34.744Z,4.83
2019-05-07T23:25:03.178Z,3.20
2019-05-07T23:27:32.553Z,3.93
2019-05-07T23:30:02.530Z,2.70
2019-05-07T23:32:32.914Z,4.03
2019-05-07T23:35:02.577Z,2.97
2019-05-07T23:37:33.043Z,3.20
2019-05-07T23:40:04.685Z,2.50
2019-05-07T23:42:35.341Z,2.57
2019-05-07T23:45:04.222Z,3.60
2019-05-07T23:47:32.714Z,2.57
2019-05-07T23:50:02.056Z,3.27
2019-05-07T23:52:30.745Z,2.20
2019-05-07T23:54:59.697Z,3.10
2019-05-07T23:57:28.196Z,2.97
2019-05-07T23:59:56.704Z,2.67
